sensor_id;sensor_type;location;lat;lon;timestamp;P1;durP1;ratioP1;P2;durP2;ratioP2
31238;SDS011;17871;31.584;74.450;2023-07-28T00:01:28;118.22;;;54.67;;
31238;SDS011;17871;31.584;74.450;2023-07-28T00:03:57;116.90;;;53.67;;
31238;SDS011;17871;31.584;74.450;2023-07-28T00:06:26;113.18;;;54.35;;
31238;SDS011;17871;31.584;74.450;2023-07-28T00:08:55;110.05;;;51.88;;
31238;SDS011;17871;31.584;74.450;2023-07-28T00:11:24;119.53;;;52.67;;
31238;SDS011;17871;31.584;74.450;2023-07-28T00:13:53;110.78;;;51.55;;
31238;SDS011;17871;31.584;74.450;2023-07-28T00:16:22;104.35;;;53.15;;
31238;SDS011;17871;31.584;74.450;2023-07-28T00:18:51;100.38;;;50.88;;
31238;SDS011;17871;31.584;74.450;2023-07-28T00:21:20;107.03;;;50.00;;
31238;SDS011;17871;31.584;74.450;2023-07-28T00:23:50;108.45;;;50.75;;
31238;SDS011;17871;31.584;74.450;2023-07-28T00:26:18;104.75;;;50.22;;
31238;SDS011;17871;31.584;74.450;2023-07-28T00:28:47;103.22;;;50.05;;
31238;SDS011;17871;31.584;74.450;2023-07-28T00:31:17;107.65;;;49.25;;
31238;SDS011;17871;31.584;74.450;2023-07-28T00:33:46;105.90;;;49.92;;
31238;SDS011;17871;31.584;74.450;2023-07-28T00:36:15;115.80;;;51.35;;
31238;SDS011;17871;31.584;74.450;2023-07-28T00:38:44;104.32;;;47.92;;
31238;SDS011;17871;31.584;74.450;2023-07-28T00:41:13;99.18;;;47.20;;
31238;SDS011;17871;31.584;74.450;2023-07-28T00:43:42;97.88;;;47.10;;
31238;SDS011;17871;31.584;74.450;2023-07-28T00:46:12;96.85;;;46.38;;
31238;SDS011;17871;31.584;74.450;2023-07-28T00:48:42;93.10;;;47.92;;
31238;SDS011;17871;31.584;74.450;2023-07-28T00:51:13;98.82;;;47.75;;
31238;SDS011;17871;31.584;74.450;2023-07-28T00:53:42;105.63;;;50.65;;
31238;SDS011;17871;31.584;74.450;2023-07-28T00:56:12;95.28;;;47.83;;
31238;SDS011;17871;31.584;74.450;2023-07-28T00:58:43;112.43;;;49.80;;
31238;SDS011;17871;31.584;74.450;2023-07-28T01:01:12;107.90;;;52.92;;
31238;SDS011;17871;31.584;74.450;2023-07-28T01:03:41;105.68;;;50.15;;
31238;SDS011;17871;31.584;74.450;2023-07-28T01:06:27;118.38;;;53.67;;
31238;SDS011;17871;31.584;74.450;2023-07-28T01:09:18;114.32;;;49.13;;
31238;SDS011;17871;31.584;74.450;2023-07-28T01:11:57;100.03;;;48.63;;
31238;SDS011;17871;31.584;74.450;2023-07-28T01:14:27;107.65;;;51.20;;
31238;SDS011;17871;31.584;74.450;2023-07-28T01:16:56;117.10;;;52.20;;
31238;SDS011;17871;31.584;74.450;2023-07-28T01:19:26;119.13;;;52.42;;
31238;SDS011;17871;31.584;74.450;2023-07-28T01:22:06;122.40;;;55.42;;
31238;SDS011;17871;31.584;74.450;2023-07-28T01:24:51;118.13;;;55.70;;
31238;SDS011;17871;31.584;74.450;2023-07-28T01:27:29;132.18;;;54.97;;
31238;SDS011;17871;31.584;74.450;2023-07-28T01:30:00;124.30;;;57.30;;
31238;SDS011;17871;31.584;74.450;2023-07-28T01:32:29;115.90;;;53.08;;
31238;SDS011;17871;31.584;74.450;2023-07-28T01:34:58;103.93;;;52.85;;
31238;SDS011;17871;31.584;74.450;2023-07-28T01:37:28;126.53;;;55.58;;
31238;SDS011;17871;31.584;74.450;2023-07-28T01:39:58;121.68;;;51.78;;
31238;SDS011;17871;31.584;74.450;2023-07-28T01:42:27;118.65;;;53.72;;
31238;SDS011;17871;31.584;74.450;2023-07-28T01:44:56;103.70;;;52.75;;
31238;SDS011;17871;31.584;74.450;2023-07-28T01:47:25;109.22;;;52.70;;
31238;SDS011;17871;31.584;74.450;2023-07-28T01:49:54;97.68;;;52.10;;
31238;SDS011;17871;31.584;74.450;2023-07-28T01:52:23;103.65;;;50.78;;
31238;SDS011;17871;31.584;74.450;2023-07-28T01:54:52;100.50;;;50.20;;
31238;SDS011;17871;31.584;74.450;2023-07-28T01:57:21;93.78;;;49.60;;
31238;SDS011;17871;31.584;74.450;2023-07-28T02:02:22;93.80;;;47.08;;
31238;SDS011;17871;31.584;74.450;2023-07-28T02:04:51;98.78;;;48.95;;
31238;SDS011;17871;31.584;74.450;2023-07-28T02:07:20;94.53;;;46.70;;
31238;SDS011;17871;31.584;74.450;2023-07-28T02:09:49;103.28;;;49.13;;
31238;SDS011;17871;31.584;74.450;2023-07-28T02:12:18;86.43;;;46.83;;
31238;SDS011;17871;31.584;74.450;2023-07-28T02:14:49;97.65;;;48.72;;
31238;SDS011;17871;31.584;74.450;2023-07-28T02:17:17;87.13;;;46.22;;
31238;SDS011;17871;31.584;74.450;2023-07-28T02:19:46;103.20;;;48.92;;
31238;SDS011;17871;31.584;74.450;2023-07-28T02:22:16;93.30;;;49.28;;
31238;SDS011;17871;31.584;74.450;2023-07-28T02:24:45;93.85;;;51.47;;
31238;SDS011;17871;31.584;74.450;2023-07-28T02:27:14;103.70;;;52.80;;
31238;SDS011;17871;31.584;74.450;2023-07-28T02:29:43;99.55;;;52.13;;
31238;SDS011;17871;31.584;74.450;2023-07-28T02:32:13;101.63;;;52.28;;
31238;SDS011;17871;31.584;74.450;2023-07-28T02:34:42;104.28;;;54.67;;
31238;SDS011;17871;31.584;74.450;2023-07-28T02:37:11;99.35;;;56.42;;
31238;SDS011;17871;31.584;74.450;2023-07-28T02:39:40;105.47;;;56.58;;
31238;SDS011;17871;31.584;74.450;2023-07-28T02:42:09;122.53;;;64.95;;
31238;SDS011;17871;31.584;74.450;2023-07-28T02:44:38;129.80;;;64.53;;
31238;SDS011;17871;31.584;74.450;2023-07-28T02:47:07;109.65;;;62.08;;
31238;SDS011;17871;31.584;74.450;2023-07-28T02:49:36;108.38;;;60.67;;
31238;SDS011;17871;31.584;74.450;2023-07-28T02:52:05;106.88;;;55.03;;
31238;SDS011;17871;31.584;74.450;2023-07-28T02:54:35;100.18;;;54.88;;
31238;SDS011;17871;31.584;74.450;2023-07-28T02:57:04;111.95;;;56.22;;
31238;SDS011;17871;31.584;74.450;2023-07-28T02:59:34;106.63;;;56.53;;
31238;SDS011;17871;31.584;74.450;2023-07-28T03:02:04;102.53;;;55.03;;
31238;SDS011;17871;31.584;74.450;2023-07-28T03:04:34;96.97;;;53.72;;
31238;SDS011;17871;31.584;74.450;2023-07-28T03:07:23;103.03;;;55.67;;
31238;SDS011;17871;31.584;74.450;2023-07-28T03:09:59;102.78;;;53.35;;
31238;SDS011;17871;31.584;74.450;2023-07-28T03:12:32;103.97;;;50.10;;
31238;SDS011;17871;31.584;74.450;2023-07-28T03:15:02;98.70;;;50.47;;
31238;SDS011;17871;31.584;74.450;2023-07-28T03:17:32;94.13;;;48.70;;
31238;SDS011;17871;31.584;74.450;2023-07-28T03:20:01;92.57;;;46.85;;
31238;SDS011;17871;31.584;74.450;2023-07-28T03:22:30;85.30;;;43.88;;
31238;SDS011;17871;31.584;74.450;2023-07-28T03:25:00;85.18;;;43.08;;
31238;SDS011;17871;31.584;74.450;2023-07-28T03:27:29;85.68;;;44.17;;
31238;SDS011;17871;31.584;74.450;2023-07-28T03:29:58;80.65;;;43.30;;
31238;SDS011;17871;31.584;74.450;2023-07-28T03:32:27;90.13;;;43.08;;
31238;SDS011;17871;31.584;74.450;2023-07-28T03:34:56;79.07;;;42.00;;
31238;SDS011;17871;31.584;74.450;2023-07-28T03:37:28;83.85;;;42.83;;
31238;SDS011;17871;31.584;74.450;2023-07-28T03:39:58;100.88;;;49.50;;
31238;SDS011;17871;31.584;74.450;2023-07-28T03:42:37;96.70;;;49.22;;
31238;SDS011;17871;31.584;74.450;2023-07-28T03:45:07;90.20;;;48.40;;
31238;SDS011;17871;31.584;74.450;2023-07-28T03:47:36;103.88;;;50.05;;
31238;SDS011;17871;31.584;74.450;2023-07-28T03:50:07;103.00;;;52.28;;
31238;SDS011;17871;31.584;74.450;2023-07-28T03:52:36;93.50;;;46.35;;
31238;SDS011;17871;31.584;74.450;2023-07-28T03:55:05;83.22;;;46.22;;
31238;SDS011;17871;31.584;74.450;2023-07-28T03:57:35;78.28;;;43.58;;
31238;SDS011;17871;31.584;74.450;2023-07-28T04:00:04;64.63;;;34.58;;
31238;SDS011;17871;31.584;74.450;2023-07-28T04:02:40;61.08;;;33.65;;
31238;SDS011;17871;31.584;74.450;2023-07-28T04:05:09;37.55;;;21.30;;
31238;SDS011;17871;31.584;74.450;2023-07-28T04:07:38;36.33;;;21.73;;
31238;SDS011;17871;31.584;74.450;2023-07-28T04:10:07;36.40;;;22.52;;
31238;SDS011;17871;31.584;74.450;2023-07-28T04:12:36;34.75;;;22.95;;
31238;SDS011;17871;31.584;74.450;2023-07-28T04:15:06;39.25;;;23.60;;
31238;SDS011;17871;31.584;74.450;2023-07-28T04:17:35;45.53;;;24.40;;
31238;SDS011;17871;31.584;74.450;2023-07-28T04:20:05;42.08;;;24.25;;
31238;SDS011;17871;31.584;74.450;2023-07-28T04:22:35;44.25;;;24.83;;
31238;SDS011;17871;31.584;74.450;2023-07-28T04:25:04;49.33;;;28.30;;
31238;SDS011;17871;31.584;74.450;2023-07-28T04:27:35;30.77;;;18.05;;
31238;SDS011;17871;31.584;74.450;2023-07-28T04:30:05;30.58;;;18.98;;
31238;SDS011;17871;31.584;74.450;2023-07-28T04:32:34;33.58;;;19.05;;
31238;SDS011;17871;31.584;74.450;2023-07-28T04:35:11;32.72;;;18.13;;
31238;SDS011;17871;31.584;74.450;2023-07-28T04:38:10;22.35;;;14.75;;
31238;SDS011;17871;31.584;74.450;2023-07-28T04:41:00;27.92;;;16.38;;
31238;SDS011;17871;31.584;74.450;2023-07-28T04:43:50;19.77;;;12.55;;
31238;SDS011;17871;31.584;74.450;2023-07-28T04:46:21;23.02;;;13.63;;
31238;SDS011;17871;31.584;74.450;2023-07-28T04:48:54;26.75;;;17.40;;
31238;SDS011;17871;31.584;74.450;2023-07-28T04:51:59;30.30;;;17.42;;
31238;SDS011;17871;31.584;74.450;2023-07-28T04:54:47;26.85;;;18.20;;
31238;SDS011;17871;31.584;74.450;2023-07-28T04:57:16;33.10;;;21.00;;
31238;SDS011;17871;31.584;74.450;2023-07-28T04:59:47;40.65;;;21.60;;
31238;SDS011;17871;31.584;74.450;2023-07-28T05:02:17;25.02;;;16.50;;
31238;SDS011;17871;31.584;74.450;2023-07-28T05:04:46;26.83;;;17.42;;
31238;SDS011;17871;31.584;74.450;2023-07-28T05:07:16;28.45;;;17.77;;
31238;SDS011;17871;31.584;74.450;2023-07-28T05:09:45;38.22;;;19.38;;
31238;SDS011;17871;31.584;74.450;2023-07-28T05:12:14;33.40;;;19.35;;
31238;SDS011;17871;31.584;74.450;2023-07-28T05:17:18;30.35;;;18.15;;
31238;SDS011;17871;31.584;74.450;2023-07-28T05:20:11;36.50;;;20.27;;
31238;SDS011;17871;31.584;74.450;2023-07-28T05:22:51;36.90;;;20.60;;
31238;SDS011;17871;31.584;74.450;2023-07-28T05:25:24;29.73;;;18.88;;
31238;SDS011;17871;31.584;74.450;2023-07-28T05:27:53;46.85;;;22.27;;
31238;SDS011;17871;31.584;74.450;2023-07-28T05:30:24;40.58;;;21.88;;
31238;SDS011;17871;31.584;74.450;2023-07-28T05:32:58;31.45;;;19.77;;
31238;SDS011;17871;31.584;74.450;2023-07-28T05:35:33;33.72;;;21.95;;
31238;SDS011;17871;31.584;74.450;2023-07-28T05:38:02;37.92;;;20.90;;
31238;SDS011;17871;31.584;74.450;2023-07-28T05:40:31;35.00;;;21.25;;
31238;SDS011;17871;31.584;74.450;2023-07-28T05:43:00;34.92;;;24.10;;
31238;SDS011;17871;31.584;74.450;2023-07-28T05:45:30;34.33;;;23.15;;
31238;SDS011;17871;31.584;74.450;2023-07-28T05:47:59;35.20;;;23.35;;
31238;SDS011;17871;31.584;74.450;2023-07-28T05:50:28;36.55;;;23.70;;
31238;SDS011;17871;31.584;74.450;2023-07-28T05:52:57;36.75;;;23.40;;
31238;SDS011;17871;31.584;74.450;2023-07-28T05:55:26;40.97;;;24.27;;
31238;SDS011;17871;31.584;74.450;2023-07-28T05:57:57;43.33;;;25.90;;
31238;SDS011;17871;31.584;74.450;2023-07-28T06:00:26;42.45;;;26.02;;
31238;SDS011;17871;31.584;74.450;2023-07-28T06:02:57;47.03;;;27.17;;
31238;SDS011;17871;31.584;74.450;2023-07-28T06:05:49;45.90;;;29.20;;
31238;SDS011;17871;31.584;74.450;2023-07-28T06:08:18;49.03;;;27.55;;
31238;SDS011;17871;31.584;74.450;2023-07-28T06:10:48;69.82;;;32.40;;
31238;SDS011;17871;31.584;74.450;2023-07-28T06:13:17;61.30;;;30.17;;
31238;SDS011;17871;31.584;74.450;2023-07-28T06:15:46;49.42;;;29.38;;
31238;SDS011;17871;31.584;74.450;2023-07-28T06:18:17;48.28;;;29.90;;
31238;SDS011;17871;31.584;74.450;2023-07-28T06:20:50;46.63;;;28.08;;
31238;SDS011;17871;31.584;74.450;2023-07-28T06:23:19;42.22;;;27.25;;
31238;SDS011;17871;31.584;74.450;2023-07-28T06:25:48;45.35;;;27.10;;
31238;SDS011;17871;31.584;74.450;2023-07-28T06:28:17;45.95;;;27.50;;
31238;SDS011;17871;31.584;74.450;2023-07-28T06:30:47;46.30;;;25.15;;
31238;SDS011;17871;31.584;74.450;2023-07-28T06:33:17;39.38;;;26.45;;
31238;SDS011;17871;31.584;74.450;2023-07-28T06:35:47;37.90;;;24.90;;
31238;SDS011;17871;31.584;74.450;2023-07-28T06:38:15;43.83;;;26.25;;
31238;SDS011;17871;31.584;74.450;2023-07-28T06:40:46;38.72;;;25.27;;
31238;SDS011;17871;31.584;74.450;2023-07-28T06:43:15;41.47;;;25.65;;
31238;SDS011;17871;31.584;74.450;2023-07-28T06:45:50;42.58;;;24.38;;
31238;SDS011;17871;31.584;74.450;2023-07-28T06:48:20;36.88;;;24.02;;
31238;SDS011;17871;31.584;74.450;2023-07-28T06:50:49;39.17;;;25.35;;
31238;SDS011;17871;31.584;74.450;2023-07-28T06:53:20;38.38;;;24.25;;
31238;SDS011;17871;31.584;74.450;2023-07-28T06:55:50;36.45;;;23.67;;
31238;SDS011;17871;31.584;74.450;2023-07-28T06:58:22;32.80;;;22.85;;
31238;SDS011;17871;31.584;74.450;2023-07-28T07:00:51;37.63;;;23.60;;
31238;SDS011;17871;31.584;74.450;2023-07-28T07:03:23;36.78;;;25.70;;
31238;SDS011;17871;31.584;74.450;2023-07-28T07:05:52;40.17;;;23.48;;
31238;SDS011;17871;31.584;74.450;2023-07-28T07:08:21;33.80;;;23.17;;
31238;SDS011;17871;31.584;74.450;2023-07-28T07:10:50;33.15;;;23.58;;
31238;SDS011;17871;31.584;74.450;2023-07-28T07:13:20;34.50;;;23.73;;
31238;SDS011;17871;31.584;74.450;2023-07-28T07:15:50;34.90;;;22.48;;
31238;SDS011;17871;31.584;74.450;2023-07-28T07:18:19;32.10;;;21.83;;
31238;SDS011;17871;31.584;74.450;2023-07-28T07:20:49;33.92;;;22.85;;
31238;SDS011;17871;31.584;74.450;2023-07-28T07:23:18;30.73;;;21.23;;
31238;SDS011;17871;31.584;74.450;2023-07-28T07:25:48;30.83;;;21.00;;
31238;SDS011;17871;31.584;74.450;2023-07-28T07:28:18;32.47;;;21.83;;
31238;SDS011;17871;31.584;74.450;2023-07-28T07:30:47;41.60;;;22.45;;
31238;SDS011;17871;31.584;74.450;2023-07-28T07:33:16;32.92;;;20.60;;
31238;SDS011;17871;31.584;74.450;2023-07-28T07:35:45;36.10;;;20.83;;
31238;SDS011;17871;31.584;74.450;2023-07-28T07:38:14;31.55;;;21.25;;
31238;SDS011;17871;31.584;74.450;2023-07-28T07:40:46;29.67;;;19.95;;
31238;SDS011;17871;31.584;74.450;2023-07-28T07:43:16;31.33;;;20.98;;
31238;SDS011;17871;31.584;74.450;2023-07-28T07:45:48;28.35;;;19.58;;
31238;SDS011;17871;31.584;74.450;2023-07-28T07:48:19;32.05;;;21.35;;
31238;SDS011;17871;31.584;74.450;2023-07-28T07:50:48;33.38;;;20.27;;
31238;SDS011;17871;31.584;74.450;2023-07-28T07:53:19;31.15;;;19.65;;
31238;SDS011;17871;31.584;74.450;2023-07-28T07:55:48;30.98;;;21.17;;
31238;SDS011;17871;31.584;74.450;2023-07-28T07:58:18;32.22;;;21.85;;
31238;SDS011;17871;31.584;74.450;2023-07-28T08:00:47;32.40;;;20.83;;
31238;SDS011;17871;31.584;74.450;2023-07-28T08:03:16;34.03;;;21.15;;
31238;SDS011;17871;31.584;74.450;2023-07-28T08:05:45;33.70;;;24.55;;
31238;SDS011;17871;31.584;74.450;2023-07-28T08:08:14;42.50;;;22.70;;
31238;SDS011;17871;31.584;74.450;2023-07-28T08:10:48;32.45;;;21.98;;
31238;SDS011;17871;31.584;74.450;2023-07-28T08:13:17;35.15;;;22.48;;
31238;SDS011;17871;31.584;74.450;2023-07-28T08:15:46;33.45;;;22.13;;
31238;SDS011;17871;31.584;74.450;2023-07-28T08:18:15;48.03;;;23.63;;
31238;SDS011;17871;31.584;74.450;2023-07-28T08:20:45;41.75;;;22.35;;
31238;SDS011;17871;31.584;74.450;2023-07-28T08:23:14;33.25;;;22.42;;
31238;SDS011;17871;31.584;74.450;2023-07-28T08:25:43;34.15;;;23.67;;
31238;SDS011;17871;31.584;74.450;2023-07-28T08:28:12;35.20;;;23.60;;
31238;SDS011;17871;31.584;74.450;2023-07-28T08:30:41;39.45;;;23.88;;
31238;SDS011;17871;31.584;74.450;2023-07-28T08:33:10;37.42;;;23.80;;
31238;SDS011;17871;31.584;74.450;2023-07-28T08:35:40;38.05;;;24.88;;
31238;SDS011;17871;31.584;74.450;2023-07-28T08:38:09;40.80;;;22.58;;
31238;SDS011;17871;31.584;74.450;2023-07-28T08:40:40;28.00;;;20.38;;
31238;SDS011;17871;31.584;74.450;2023-07-28T08:45:41;33.58;;;22.80;;
31238;SDS011;17871;31.584;74.450;2023-07-28T08:48:10;33.53;;;24.55;;
31238;SDS011;17871;31.584;74.450;2023-07-28T08:50:39;38.55;;;24.98;;
31238;SDS011;17871;31.584;74.450;2023-07-28T08:53:08;41.75;;;27.92;;
31238;SDS011;17871;31.584;74.450;2023-07-28T08:55:37;42.42;;;28.23;;
31238;SDS011;17871;31.584;74.450;2023-07-28T08:58:13;41.08;;;26.52;;
31238;SDS011;17871;31.584;74.450;2023-07-28T09:00:51;47.40;;;29.27;;
31238;SDS011;17871;31.584;74.450;2023-07-28T09:03:21;39.88;;;27.60;;
31238;SDS011;17871;31.584;74.450;2023-07-28T09:05:51;41.30;;;26.50;;
31238;SDS011;17871;31.584;74.450;2023-07-28T09:08:27;42.90;;;26.92;;
31238;SDS011;17871;31.584;74.450;2023-07-28T09:11:01;40.10;;;27.38;;
31238;SDS011;17871;31.584;74.450;2023-07-28T09:13:36;37.90;;;26.40;;
31238;SDS011;17871;31.584;74.450;2023-07-28T09:16:17;37.92;;;24.05;;
31238;SDS011;17871;31.584;74.450;2023-07-28T09:19:03;37.90;;;24.88;;
31238;SDS011;17871;31.584;74.450;2023-07-28T09:21:35;39.50;;;24.08;;
31238;SDS011;17871;31.584;74.450;2023-07-28T09:24:07;34.63;;;24.95;;
31238;SDS011;17871;31.584;74.450;2023-07-28T09:26:39;35.33;;;23.85;;
31238;SDS011;17871;31.584;74.450;2023-07-28T09:29:19;37.78;;;22.15;;
31238;SDS011;17871;31.584;74.450;2023-07-28T09:31:50;33.25;;;22.80;;
31238;SDS011;17871;31.584;74.450;2023-07-28T09:34:23;29.05;;;20.10;;
31238;SDS011;17871;31.584;74.450;2023-07-28T09:36:55;29.48;;;21.70;;
31238;SDS011;17871;31.584;74.450;2023-07-28T09:39:25;35.47;;;21.00;;
31238;SDS011;17871;31.584;74.450;2023-07-28T09:41:56;33.80;;;23.02;;
31238;SDS011;17871;31.584;74.450;2023-07-28T09:44:27;33.10;;;21.10;;
31238;SDS011;17871;31.584;74.450;2023-07-28T09:46:57;33.70;;;21.85;;
31238;SDS011;17871;31.584;74.450;2023-07-28T09:49:32;35.00;;;21.17;;
31238;SDS011;17871;31.584;74.450;2023-07-28T09:52:05;31.98;;;20.60;;
31238;SDS011;17871;31.584;74.450;2023-07-28T09:54:41;32.65;;;22.08;;
31238;SDS011;17871;31.584;74.450;2023-07-28T09:57:12;32.30;;;21.63;;
31238;SDS011;17871;31.584;74.450;2023-07-28T09:59:42;33.80;;;21.77;;
31238;SDS011;17871;31.584;74.450;2023-07-28T10:02:14;30.75;;;20.63;;
31238;SDS011;17871;31.584;74.450;2023-07-28T10:04:44;28.77;;;20.42;;
31238;SDS011;17871;31.584;74.450;2023-07-28T10:07:13;32.92;;;20.25;;
31238;SDS011;17871;31.584;74.450;2023-07-28T10:09:43;31.92;;;20.10;;
31238;SDS011;17871;31.584;74.450;2023-07-28T10:12:18;29.70;;;19.38;;
31238;SDS011;17871;31.584;74.450;2023-07-28T10:15:02;31.00;;;20.35;;
31238;SDS011;17871;31.584;74.450;2023-07-28T10:17:34;34.08;;;20.10;;
31238;SDS011;17871;31.584;74.450;2023-07-28T10:20:04;26.60;;;19.50;;
31238;SDS011;17871;31.584;74.450;2023-07-28T10:22:44;28.13;;;18.95;;
31238;SDS011;17871;31.584;74.450;2023-07-28T10:25:19;25.85;;;18.92;;
31238;SDS011;17871;31.584;74.450;2023-07-28T10:27:51;30.15;;;20.50;;
31238;SDS011;17871;31.584;74.450;2023-07-28T10:30:22;25.75;;;19.80;;
31238;SDS011;17871;31.584;74.450;2023-07-28T10:32:53;27.58;;;18.65;;
31238;SDS011;17871;31.584;74.450;2023-07-28T10:35:25;27.67;;;19.08;;
31238;SDS011;17871;31.584;74.450;2023-07-28T10:38:27;30.98;;;20.45;;
31238;SDS011;17871;31.584;74.450;2023-07-28T10:41:09;29.27;;;19.92;;
31238;SDS011;17871;31.584;74.450;2023-07-28T10:43:43;28.65;;;20.38;;
31238;SDS011;17871;31.584;74.450;2023-07-28T10:46:14;34.08;;;21.58;;
31238;SDS011;17871;31.584;74.450;2023-07-28T10:48:45;32.88;;;22.27;;
31238;SDS011;17871;31.584;74.450;2023-07-28T10:51:22;41.08;;;20.20;;
31238;SDS011;17871;31.584;74.450;2023-07-28T10:53:57;38.10;;;20.35;;
31238;SDS011;17871;31.584;74.450;2023-07-28T10:56:27;33.65;;;21.00;;
31238;SDS011;17871;31.584;74.450;2023-07-28T11:01:30;34.95;;;21.67;;
31238;SDS011;17871;31.584;74.450;2023-07-28T11:04:08;34.00;;;20.63;;
31238;SDS011;17871;31.584;74.450;2023-07-28T11:06:51;32.97;;;20.90;;
31238;SDS011;17871;31.584;74.450;2023-07-28T11:09:22;51.53;;;23.38;;
31238;SDS011;17871;31.584;74.450;2023-07-28T11:11:54;40.17;;;23.85;;
31238;SDS011;17871;31.584;74.450;2023-07-28T11:14:23;41.60;;;24.95;;
31238;SDS011;17871;31.584;74.450;2023-07-28T11:16:53;36.83;;;23.90;;
31238;SDS011;17871;31.584;74.450;2023-07-28T11:19:23;45.88;;;27.00;;
31238;SDS011;17871;31.584;74.450;2023-07-28T11:21:54;42.05;;;24.33;;
31238;SDS011;17871;31.584;74.450;2023-07-28T11:24:24;42.42;;;25.90;;
31238;SDS011;17871;31.584;74.450;2023-07-28T11:26:54;40.97;;;25.55;;
31238;SDS011;17871;31.584;74.450;2023-07-28T11:29:32;45.83;;;25.80;;
31238;SDS011;17871;31.584;74.450;2023-07-28T11:32:02;47.10;;;27.42;;
31238;SDS011;17871;31.584;74.450;2023-07-28T11:34:38;42.95;;;26.58;;
31238;SDS011;17871;31.584;74.450;2023-07-28T11:37:10;45.65;;;26.02;;
31238;SDS011;17871;31.584;74.450;2023-07-28T11:39:40;43.40;;;27.30;;
31238;SDS011;17871;31.584;74.450;2023-07-28T11:42:10;43.58;;;26.85;;
31238;SDS011;17871;31.584;74.450;2023-07-28T11:44:40;47.08;;;27.85;;
31238;SDS011;17871;31.584;74.450;2023-07-28T11:47:09;43.10;;;28.15;;
31238;SDS011;17871;31.584;74.450;2023-07-28T11:49:48;47.13;;;26.67;;
31238;SDS011;17871;31.584;74.450;2023-07-28T11:52:19;52.72;;;29.08;;
31238;SDS011;17871;31.584;74.450;2023-07-28T11:54:51;53.67;;;30.63;;
31238;SDS011;17871;31.584;74.450;2023-07-28T11:57:21;46.83;;;28.83;;
31238;SDS011;17871;31.584;74.450;2023-07-28T11:59:50;51.83;;;31.23;;
31238;SDS011;17871;31.584;74.450;2023-07-28T12:02:26;52.33;;;29.65;;
31238;SDS011;17871;31.584;74.450;2023-07-28T12:04:57;49.85;;;29.25;;
31238;SDS011;17871;31.584;74.450;2023-07-28T12:07:33;53.50;;;30.65;;
31238;SDS011;17871;31.584;74.450;2023-07-28T12:10:04;49.35;;;29.35;;
31238;SDS011;17871;31.584;74.450;2023-07-28T12:12:41;48.92;;;30.55;;
31238;SDS011;17871;31.584;74.450;2023-07-28T12:15:21;50.67;;;30.63;;
31238;SDS011;17871;31.584;74.450;2023-07-28T12:18:12;50.92;;;30.52;;
31238;SDS011;17871;31.584;74.450;2023-07-28T12:20:48;54.10;;;30.67;;
31238;SDS011;17871;31.584;74.450;2023-07-28T12:23:22;52.42;;;30.10;;
31238;SDS011;17871;31.584;74.450;2023-07-28T12:25:54;68.13;;;31.45;;
31238;SDS011;17871;31.584;74.450;2023-07-28T12:28:23;49.63;;;28.13;;
31238;SDS011;17871;31.584;74.450;2023-07-28T12:30:53;57.58;;;31.67;;
31238;SDS011;17871;31.584;74.450;2023-07-28T12:33:24;52.33;;;28.83;;
31238;SDS011;17871;31.584;74.450;2023-07-28T12:36:05;51.38;;;28.88;;
31238;SDS011;17871;31.584;74.450;2023-07-28T12:38:38;47.33;;;28.40;;
31238;SDS011;17871;31.584;74.450;2023-07-28T12:41:09;50.45;;;29.00;;
31238;SDS011;17871;31.584;74.450;2023-07-28T12:43:38;48.80;;;27.52;;
31238;SDS011;17871;31.584;74.450;2023-07-28T12:46:10;47.45;;;28.08;;
31238;SDS011;17871;31.584;74.450;2023-07-28T12:48:38;51.10;;;29.17;;
31238;SDS011;17871;31.584;74.450;2023-07-28T12:51:11;49.33;;;28.55;;
31238;SDS011;17871;31.584;74.450;2023-07-28T12:53:56;45.65;;;28.73;;
31238;SDS011;17871;31.584;74.450;2023-07-28T12:56:25;43.42;;;26.48;;
31238;SDS011;17871;31.584;74.450;2023-07-28T12:58:57;44.83;;;26.48;;
31238;SDS011;17871;31.584;74.450;2023-07-28T13:01:29;45.00;;;27.67;;
31238;SDS011;17871;31.584;74.450;2023-07-28T13:03:58;47.50;;;27.30;;
31238;SDS011;17871;31.584;74.450;2023-07-28T13:06:28;43.20;;;26.02;;
31238;SDS011;17871;31.584;74.450;2023-07-28T13:08:57;41.22;;;25.02;;
31238;SDS011;17871;31.584;74.450;2023-07-28T13:11:29;43.08;;;24.83;;
31238;SDS011;17871;31.584;74.450;2023-07-28T13:16:29;37.88;;;24.08;;
31238;SDS011;17871;31.584;74.450;2023-07-28T13:18:59;42.83;;;24.88;;
31238;SDS011;17871;31.584;74.450;2023-07-28T13:21:28;41.75;;;23.52;;
31238;SDS011;17871;31.584;74.450;2023-07-28T13:23:57;41.97;;;24.67;;
31238;SDS011;17871;31.584;74.450;2023-07-28T13:26:27;38.83;;;23.20;;
31238;SDS011;17871;31.584;74.450;2023-07-28T13:28:56;44.05;;;23.60;;
31238;SDS011;17871;31.584;74.450;2023-07-28T13:31:27;37.10;;;22.75;;
31238;SDS011;17871;31.584;74.450;2023-07-28T13:33:57;36.58;;;22.20;;
31238;SDS011;17871;31.584;74.450;2023-07-28T13:36:26;40.85;;;23.35;;
31238;SDS011;17871;31.584;74.450;2023-07-28T13:38:55;36.53;;;22.55;;
31238;SDS011;17871;31.584;74.450;2023-07-28T13:41:24;34.70;;;20.35;;
31238;SDS011;17871;31.584;74.450;2023-07-28T13:43:53;30.02;;;19.25;;
31238;SDS011;17871;31.584;74.450;2023-07-28T13:46:30;35.35;;;19.63;;
31238;SDS011;17871;31.584;74.450;2023-07-28T13:49:02;34.03;;;19.17;;
31238;SDS011;17871;31.584;74.450;2023-07-28T13:51:35;30.13;;;18.88;;
31238;SDS011;17871;31.584;74.450;2023-07-28T13:54:09;37.45;;;19.15;;
31238;SDS011;17871;31.584;74.450;2023-07-28T13:56:42;35.75;;;19.13;;
31238;SDS011;17871;31.584;74.450;2023-07-28T13:59:15;27.40;;;18.17;;
31238;SDS011;17871;31.584;74.450;2023-07-28T14:01:44;30.35;;;18.58;;
31238;SDS011;17871;31.584;74.450;2023-07-28T14:04:13;31.33;;;18.02;;
31238;SDS011;17871;31.584;74.450;2023-07-28T14:06:42;28.20;;;16.90;;
31238;SDS011;17871;31.584;74.450;2023-07-28T14:09:11;25.10;;;17.08;;
31238;SDS011;17871;31.584;74.450;2023-07-28T14:11:41;31.45;;;19.23;;
31238;SDS011;17871;31.584;74.450;2023-07-28T14:14:10;27.88;;;17.85;;
31238;SDS011;17871;31.584;74.450;2023-07-28T14:16:39;29.95;;;16.48;;
31238;SDS011;17871;31.584;74.450;2023-07-28T14:19:08;27.60;;;16.15;;
31238;SDS011;17871;31.584;74.450;2023-07-28T14:21:37;24.60;;;14.30;;
31238;SDS011;17871;31.584;74.450;2023-07-28T14:24:06;22.02;;;13.88;;
31238;SDS011;17871;31.584;74.450;2023-07-28T14:26:36;25.92;;;13.35;;
31238;SDS011;17871;31.584;74.450;2023-07-28T14:29:05;20.80;;;12.65;;
31238;SDS011;17871;31.584;74.450;2023-07-28T14:31:34;19.92;;;12.35;;
31238;SDS011;17871;31.584;74.450;2023-07-28T14:34:05;20.92;;;12.90;;
31238;SDS011;17871;31.584;74.450;2023-07-28T14:36:33;20.00;;;12.32;;
31238;SDS011;17871;31.584;74.450;2023-07-28T14:39:03;23.30;;;13.73;;
31238;SDS011;17871;31.584;74.450;2023-07-28T14:41:35;18.67;;;11.77;;
31238;SDS011;17871;31.584;74.450;2023-07-28T14:44:04;22.30;;;11.73;;